Time;durP1;ratioP1;P1;durP2;ratioP2;P2;SDS_P1;SDS_P2;PMS_P1;PMS_P2;Temp;Humidity;BMP_temperature;BMP_pressure;BME280_temperature;BME280_humidity;BME280_pressure;Samples;Min_cycle;Max_cycle;Signal;HPM_P1;HPM_P2
2023/08/07 00:02:15;;;;;;;5.10;3.43;;;;;;;;;;5135393;27;20532;-63
2023/08/07 00:04:42;;;;;;;6.87;4.47;;;;;;;;;;5135257;27;20523;-64
2023/08/07 00:07:09;;;;;;;7.00;4.00;;;;;;;;;;5135997;27;20565;-63
2023/08/07 00:09:37;;;;;;;8.77;4.30;;;;;;;;;;5135469;27;20532;-63
2023/08/07 00:12:04;;;;;;;9.20;4.63;;;;;;;;;;5135091;27;20448;-63
2023/08/07 00:14:33;;;;;;;5.60;4.07;;;;;;;;;;5134952;27;20527;-64
2023/08/07 00:17:00;;;;;;;9.53;4.30;;;;;;;;;;5135438;27;20872;-63
2023/08/07 00:19:27;;;;;;;5.07;3.80;;;;;;;;;;5134976;27;20859;-64
2023/08/07 00:21:54;;;;;;;6.07;3.77;;;;;;;;;;5135392;27;20503;-63
2023/08/07 00:24:21;;;;;;;3.97;3.63;;;;;;;;;;5135093;27;20808;-64
2023/08/07 00:26:49;;;;;;;4.03;3.20;;;;;;;;;;5134751;27;20563;-64
2023/08/07 00:29:16;;;;;;;4.40;3.80;;;;;;;;;;5135144;27;20439;-64
2023/08/07 00:31:44;;;;;;;4.10;3.70;;;;;;;;;;5135107;27;20528;-64
2023/08/07 00:34:11;;;;;;;13.40;4.23;;;;;;;;;;5134955;27;20791;-64
2023/08/07 00:36:39;;;;;;;6.30;4.17;;;;;;;;;;5134809;27;20437;-63
2023/08/07 00:39:07;;;;;;;5.80;4.47;;;;;;;;;;5134751;27;20433;-64
2023/08/07 00:41:34;;;;;;;5.23;3.60;;;;;;;;;;5134998;27;20910;-64
2023/08/07 00:44:02;;;;;;;4.20;3.70;;;;;;;;;;5134757;27;20460;-64
2023/08/07 00:46:29;;;;;;;5.40;4.60;;;;;;;;;;5134838;27;20567;-63
2023/08/07 00:48:58;;;;;;;4.37;3.30;;;;;;;;;;5134348;27;20447;-63
2023/08/07 00:51:25;;;;;;;3.97;3.67;;;;;;;;;;5134540;27;20869;-64
2023/08/07 00:53:52;;;;;;;4.00;3.60;;;;;;;;;;5135080;27;20437;-64
2023/08/07 00:56:20;;;;;;;8.20;3.80;;;;;;;;;;5134512;27;20440;-64
2023/08/07 00:58:47;;;;;;;4.43;3.80;;;;;;;;;;5133992;27;20440;-63
2023/08/07 01:01:15;;;;;;;6.43;4.93;;;;;;;;;;5134156;27;20429;-66
2023/08/07 01:03:42;;;;;;;6.40;3.97;;;;;;;;;;5134437;27;20437;-65
2023/08/07 01:06:11;;;;;;;5.33;4.10;;;;;;;;;;5134272;27;20523;-63
2023/08/07 01:08:38;;;;;;;4.50;3.67;;;;;;;;;;5134602;27;20532;-64
2023/08/07 01:11:17;;;;;;;4.40;4.00;;;;;;;;;;5134426;27;20472;-64
2023/08/07 01:13:55;;;;;;;4.73;3.33;;;;;;;;;;5134797;27;20418;-63
2023/08/07 01:16:23;;;;;;;5.63;4.30;;;;;;;;;;5134513;27;20424;-63
2023/08/07 01:18:51;;;;;;;5.07;3.77;;;;;;;;;;5133834;27;20441;-63
2023/08/07 01:21:22;;;;;;;4.93;4.47;;;;;;;;;;5133821;27;20905;-64
2023/08/07 01:23:51;;;;;;;4.97;4.30;;;;;;;;;;5133674;27;20527;-63
2023/08/07 01:26:20;;;;;;;6.20;3.93;;;;;;;;;;5133853;27;20516;-63
2023/08/07 01:28:50;;;;;;;5.70;4.17;;;;;;;;;;5134030;27;20472;-63
2023/08/07 01:31:21;;;;;;;7.80;4.70;;;;;;;;;;5133705;27;20437;-64
2023/08/07 01:33:50;;;;;;;6.50;4.53;;;;;;;;;;5133950;27;20433;-64
2023/08/07 01:36:17;;;;;;;7.27;4.93;;;;;;;;;;5133862;28;20543;-64
2023/08/07 01:38:45;;;;;;;7.13;5.33;;;;;;;;;;5133564;28;20524;-64
2023/08/07 01:41:14;;;;;;;8.27;5.40;;;;;;;;;;5133554;27;20848;-64
2023/08/07 01:43:41;;;;;;;10.60;6.27;;;;;;;;;;5138019;27;20443;-63
2023/08/07 01:46:08;;;;;;;11.37;6.57;;;;;;;;;;5138028;27;20532;-64
2023/08/07 01:48:36;;;;;;;9.10;6.10;;;;;;;;;;5137721;27;20531;-64
2023/08/07 01:51:03;;;;;;;8.80;6.20;;;;;;;;;;5137796;27;20898;-64
2023/08/07 01:53:30;;;;;;;10.00;5.70;;;;;;;;;;5137490;27;20928;-65
2023/08/07 01:55:57;;;;;;;11.17;7.30;;;;;;;;;;5137908;27;20790;-64
2023/08/07 01:58:26;;;;;;;10.27;6.20;;;;;;;;;;5137723;27;20441;-64
2023/08/07 02:00:53;;;;;;;8.93;6.40;;;;;;;;;;5138163;27;20817;-65
2023/08/07 02:03:20;;;;;;;7.60;6.23;;;;;;;;;;5138175;27;20441;-65
2023/08/07 02:05:48;;;;;;;8.60;6.37;;;;;;;;;;5137477;27;20531;-64
2023/08/07 02:08:15;;;;;;;11.63;6.60;;;;;;;;;;5137399;27;20567;-64
2023/08/07 02:10:43;;;;;;;9.77;5.53;;;;;;;;;;5137604;27;20444;-64
2023/08/07 02:13:10;;;;;;;7.37;5.80;;;;;;;;;;5137161;27;20451;-64
2023/08/07 02:15:38;;;;;;;4.60;3.60;;;;;;;;;;5137017;27;20934;-64
2023/08/07 02:18:05;;;;;;;6.30;4.47;;;;;;;;;;5137594;27;20441;-64
2023/08/07 02:20:33;;;;;;;10.73;4.40;;;;;;;;;;5137097;27;20437;-66
2023/08/07 02:23:00;;;;;;;5.00;4.20;;;;;;;;;;5137100;27;20443;-64
2023/08/07 02:25:27;;;;;;;5.13;4.70;;;;;;;;;;5137493;27;20881;-64
2023/08/07 02:27:54;;;;;;;4.87;4.40;;;;;;;;;;5137263;27;20497;-64
2023/08/07 02:30:21;;;;;;;4.00;3.70;;;;;;;;;;5137347;27;20523;-64
2023/08/07 02:32:50;;;;;;;5.80;4.60;;;;;;;;;;5137096;27;20432;-64
2023/08/07 02:35:17;;;;;;;4.30;3.90;;;;;;;;;;5137259;27;20445;-64
2023/08/07 02:37:44;;;;;;;5.70;4.00;;;;;;;;;;5137147;27;20629;-64
2023/08/07 02:40:15;;;;;;;3.27;2.90;;;;;;;;;;5136875;27;20433;-65
2023/08/07 02:42:42;;;;;;;7.13;3.67;;;;;;;;;;5137137;27;20857;-64
2023/08/07 02:45:10;;;;;;;4.40;2.47;;;;;;;;;;5137098;27;20489;-64
2023/08/07 02:47:37;;;;;;;2.37;2.17;;;;;;;;;;5136895;27;20480;-64
2023/08/07 02:50:06;;;;;;;2.27;2.07;;;;;;;;;;5137480;27;20432;-64
2023/08/07 02:52:33;;;;;;;2.60;2.40;;;;;;;;;;5137054;27;20551;-65
2023/08/07 02:55:00;;;;;;;2.17;2.07;;;;;;;;;;5137320;27;20432;-64
2023/08/07 02:57:27;;;;;;;3.00;2.00;;;;;;;;;;5136788;27;20595;-64
2023/08/07 02:59:55;;;;;;;2.07;1.87;;;;;;;;;;5136611;27;20552;-64
2023/08/07 03:02:22;;;;;;;3.00;2.13;;;;;;;;;;5136549;27;20937;-64
2023/08/07 03:04:49;;;;;;;3.90;3.50;;;;;;;;;;5136812;27;20520;-64
2023/08/07 03:07:17;;;;;;;5.17;2.37;;;;;;;;;;5136157;27;20563;-64
2023/08/07 03:09:47;;;;;;;2.20;2.00;;;;;;;;;;5136330;27;20947;-64
2023/08/07 03:12:14;;;;;;;2.87;2.67;;;;;;;;;;5136181;27;20940;-64
2023/08/07 03:14:42;;;;;;;2.07;1.90;;;;;;;;;;5136533;27;20436;-64
2023/08/07 03:17:09;;;;;;;3.63;2.30;;;;;;;;;;5136349;27;20565;-64
2023/08/07 03:19:36;;;;;;;2.70;2.50;;;;;;;;;;5136388;27;20528;-64
2023/08/07 03:22:04;;;;;;;3.10;2.80;;;;;;;;;;5136402;27;20764;-64
2023/08/07 03:24:32;;;;;;;2.63;2.43;;;;;;;;;;5136358;27;20805;-64
2023/08/07 03:26:59;;;;;;;3.80;2.90;;;;;;;;;;5136111;27;20450;-64
2023/08/07 03:29:26;;;;;;;4.33;2.67;;;;;;;;;;5136223;27;20521;-64
2023/08/07 03:31:54;;;;;;;5.20;3.10;;;;;;;;;;5136058;27;20434;-64
2023/08/07 03:34:21;;;;;;;3.17;2.87;;;;;;;;;;5135811;27;20449;-64
2023/08/07 03:36:48;;;;;;;3.07;2.67;;;;;;;;;;5136363;27;20443;-64
2023/08/07 03:39:15;;;;;;;8.17;2.50;;;;;;;;;;5136017;27;20435;-63
2023/08/07 03:41:44;;;;;;;3.33;2.97;;;;;;;;;;5135854;27;20439;-64
2023/08/07 03:44:11;;;;;;;4.97;2.37;;;;;;;;;;5135590;27;20432;-63
2023/08/07 03:46:38;;;;;;;2.70;2.50;;;;;;;;;;5135749;27;20437;-64
2023/08/07 03:49:06;;;;;;;4.57;2.63;;;;;;;;;;5135477;27;20480;-64
2023/08/07 03:51:33;;;;;;;3.20;2.30;;;;;;;;;;5135882;27;20886;-64
2023/08/07 03:54:00;;;;;;;3.03;2.50;;;;;;;;;;5135708;27;20437;-64
2023/08/07 03:56:27;;;;;;;2.13;1.97;;;;;;;;;;5134629;27;20451;-64
2023/08/07 03:58:56;;;;;;;7.63;3.70;;;;;;;;;;5134638;27;20528;-64
2023/08/07 04:01:23;;;;;;;2.30;1.77;;;;;;;;;;5135168;27;20433;-64
2023/08/07 04:03:50;;;;;;;1.97;1.67;;;;;;;;;;5135286;27;20447;-63
2023/08/07 04:06:17;;;;;;;4.73;1.90;;;;;;;;;;5134378;27;20952;-63
2023/08/07 04:08:46;;;;;;;1.87;1.77;;;;;;;;;;5134840;27;21031;-63
2023/08/07 04:11:13;;;;;;;3.27;2.10;;;;;;;;;;5135305;27;20622;-63
2023/08/07 04:13:41;;;;;;;9.40;2.00;;;;;;;;;;5135360;27;20446;-63
2023/08/07 04:16:10;;;;;;;1.90;1.80;;;;;;;;;;5135036;27;20940;-63
2023/08/07 04:18:37;;;;;;;3.10;1.87;;;;;;;;;;5134889;27;20540;-63
2023/08/07 04:21:04;;;;;;;8.17;1.90;;;;;;;;;;5135129;27;20543;-63
2023/08/07 04:23:32;;;;;;;2.40;1.80;;;;;;;;;;5134688;27;20444;-63
2023/08/07 04:25:59;;;;;;;2.77;2.20;;;;;;;;;;5134913;27;20436;-63
2023/08/07 04:28:26;;;;;;;3.37;2.27;;;;;;;;;;5134479;27;20567;-63
2023/08/07 04:30:53;;;;;;;4.17;2.20;;;;;;;;;;5134684;27;21043;-63
2023/08/07 04:33:22;;;;;;;5.90;2.30;;;;;;;;;;5134757;27;20438;-63
2023/08/07 04:35:49;;;;;;;2.40;2.20;;;;;;;;;;5134365;27;20530;-66
2023/08/07 04:38:17;;;;;;;2.70;2.50;;;;;;;;;;5134236;27;20951;-64
2023/08/07 04:40:47;;;;;;;5.00;2.53;;;;;;;;;;5134679;27;20510;-63
2023/08/07 04:43:14;;;;;;;2.83;2.40;;;;;;;;;;5134698;27;20447;-64
2023/08/07 04:45:42;;;;;;;4.37;2.80;;;;;;;;;;5133986;27;20447;-63
2023/08/07 04:48:09;;;;;;;3.03;2.40;;;;;;;;;;5134297;27;20969;-63
2023/08/07 04:50:38;;;;;;;3.07;1.93;;;;;;;;;;5134307;27;20860;-63
2023/08/07 04:53:06;;;;;;;2.53;2.00;;;;;;;;;;5134175;27;20978;-63
2023/08/07 04:55:33;;;;;;;2.27;1.73;;;;;;;;;;5134555;27;20438;-63
2023/08/07 04:58:00;;;;;;;3.00;2.70;;;;;;;;;;5134020;27;20440;-64
2023/08/07 05:00:29;;;;;;;4.80;2.13;;;;;;;;;;5133978;27;20851;-63
2023/08/07 05:02:56;;;;;;;4.40;1.73;;;;;;;;;;5134286;27;20515;-63
2023/08/07 05:05:23;;;;;;;3.40;2.50;;;;;;;;;;5134127;27;20446;-63
2023/08/07 05:07:52;;;;;;;3.00;2.00;;;;;;;;;;5133828;27;20524;-63
2023/08/07 05:10:19;;;;;;;3.20;2.00;;;;;;;;;;5134452;27;20478;-63
2023/08/07 05:12:46;;;;;;;2.30;1.83;;;;;;;;;;5134287;27;20528;-64
2023/08/07 05:15:13;;;;;;;1.83;1.73;;;;;;;;;;5134195;27;20536;-63
2023/08/07 05:17:41;;;;;;;2.20;2.00;;;;;;;;;;5133365;27;20965;-63
2023/08/07 05:20:09;;;;;;;3.13;1.83;;;;;;;;;;5133871;27;20514;-63
2023/08/07 05:22:37;;;;;;;3.43;1.60;;;;;;;;;;5134323;27;20450;-63
2023/08/07 05:25:06;;;;;;;3.00;1.90;;;;;;;;;;5133758;27;21017;-63
2023/08/07 05:27:34;;;;;;;4.30;1.80;;;;;;;;;;5134011;27;20436;-63
2023/08/07 05:30:02;;;;;;;2.73;2.03;;;;;;;;;;5133990;27;20535;-63
2023/08/07 05:32:29;;;;;;;4.17;2.03;;;;;;;;;;5133949;27;20478;-63
2023/08/07 05:34:56;;;;;;;5.13;2.40;;;;;;;;;;5133677;27;20444;-63
2023/08/07 05:37:23;;;;;;;3.57;2.37;;;;;;;;;;5133973;28;20495;-63
2023/08/07 05:39:50;;;;;;;5.67;2.90;;;;;;;;;;5133923;28;20436;-63
2023/08/07 05:42:19;;;;;;;4.60;2.43;;;;;;;;;;5134081;28;20434;-63
2023/08/07 05:44:46;;;;;;;4.23;2.30;;;;;;;;;;5133861;28;20430;-63
2023/08/07 05:47:14;;;;;;;4.17;2.17;;;;;;;;;;5133967;28;20522;-63
2023/08/07 05:49:41;;;;;;;3.23;2.00;;;;;;;;;;5133501;28;20476;-63
2023/08/07 05:52:09;;;;;;;4.97;3.20;;;;;;;;;;5133547;28;20530;-63
2023/08/07 05:54:36;;;;;;;5.57;2.97;;;;;;;;;;5133749;28;20945;-63
2023/08/07 05:57:03;;;;;;;9.33;2.53;;;;;;;;;;5133819;28;20448;-63
2023/08/07 05:59:34;;;;;;;7.90;3.00;;;;;;;;;;5133667;27;20480;-62
2023/08/07 06:02:02;;;;;;;4.50;2.53;;;;;;;;;;5133871;28;20425;-62
2023/08/07 06:04:29;;;;;;;7.20;3.50;;;;;;;;;;5133850;28;20456;-63
2023/08/07 06:06:56;;;;;;;6.83;3.50;;;;;;;;;;5133707;28;20525;-62
2023/08/07 06:09:23;;;;;;;3.43;2.80;;;;;;;;;;5133512;28;20508;-63
2023/08/07 06:11:51;;;;;;;10.40;3.80;;;;;;;;;;5133692;28;20446;-62
2023/08/07 06:14:18;;;;;;;12.20;2.87;;;;;;;;;;5133197;28;20441;-62
2023/08/07 06:16:46;;;;;;;8.47;4.10;;;;;;;;;;5133674;28;20982;-62
2023/08/07 06:19:14;;;;;;;8.40;3.40;;;;;;;;;;5133312;28;20561;-62
2023/08/07 06:21:41;;;;;;;4.73;3.00;;;;;;;;;;5133151;28;20449;-62
2023/08/07 06:24:08;;;;;;;4.87;3.57;;;;;;;;;;5133553;28;20433;-63
2023/08/07 06:26:35;;;;;;;7.60;3.20;;;;;;;;;;5133608;28;20445;-63
2023/08/07 06:29:02;;;;;;;6.90;3.13;;;;;;;;;;5135919;27;20468;-62
2023/08/07 06:31:29;;;;;;;5.33;3.03;;;;;;;;;;5137685;27;20448;-62
2023/08/07 06:33:59;;;;;;;7.83;3.10;;;;;;;;;;5137717;27;20547;-63
2023/08/07 06:36:27;;;;;;;4.60;3.00;;;;;;;;;;5136805;27;20440;-62
2023/08/07 06:38:54;;;;;;;4.53;3.23;;;;;;;;;;5137689;27;20447;-63
2023/08/07 06:41:21;;;;;;;8.80;3.57;;;;;;;;;;5137064;27;20439;-62
2023/08/07 06:43:49;;;;;;;15.93;4.63;;;;;;;;;;5137310;27;20910;-62
2023/08/07 06:46:16;;;;;;;10.30;3.47;;;;;;;;;;5137144;27;20441;-62
2023/08/07 06:48:44;;;;;;;9.10;3.80;;;;;;;;;;5136627;27;20527;-63
2023/08/07 06:51:12;;;;;;;9.07;3.50;;;;;;;;;;5137102;27;20836;-62
2023/08/07 06:53:39;;;;;;;9.37;3.80;;;;;;;;;;5136918;27;20526;-62
2023/08/07 06:56:06;;;;;;;9.33;3.30;;;;;;;;;;5136683;27;20443;-62
2023/08/07 06:58:34;;;;;;;7.33;3.20;;;;;;;;;;5136385;27;20451;-62
2023/08/07 07:01:02;;;;;;;5.43;3.53;;;;;;;;;;5137218;27;20465;-62
2023/08/07 07:03:29;;;;;;;5.90;3.70;;;;;;;;;;5136283;27;20449;-62
2023/08/07 07:05:57;;;;;;;9.07;4.37;;;;;;;;;;5136860;27;20527;-62
2023/08/07 07:08:25;;;;;;;5.80;3.70;;;;;;;;;;5136279;27;21052;-63
2023/08/07 07:10:52;;;;;;;5.60;4.17;;;;;;;;;;5136863;27;20531;-62
2023/08/07 07:13:20;;;;;;;9.70;4.07;;;;;;;;;;5136241;27;20446;-62
2023/08/07 07:15:47;;;;;;;10.33;5.60;;;;;;;;;;5136305;27;20442;-62
2023/08/07 07:18:14;;;;;;;4.70;3.50;;;;;;;;;;5136052;27;20440;-62
2023/08/07 07:20:41;;;;;;;8.40;4.10;;;;;;;;;;5136061;27;20445;-63
2023/08/07 07:23:08;;;;;;;10.83;4.07;;;;;;;;;;5136119;27;20472;-63
2023/08/07 07:25:37;;;;;;;10.67;4.50;;;;;;;;;;5136019;27;20518;-63
2023/08/07 07:28:04;;;;;;;10.43;3.97;;;;;;;;;;5135840;27;20523;-62
2023/08/07 07:30:32;;;;;;;9.93;3.93;;;;;;;;;;5135966;27;20434;-62
2023/08/07 07:33:01;;;;;;;9.33;4.40;;;;;;;;;;5136707;27;20439;-62
2023/08/07 07:35:30;;;;;;;6.80;3.23;;;;;;;;;;5135662;27;20599;-62
2023/08/07 07:37:57;;;;;;;11.77;5.23;;;;;;;;;;5135490;27;20440;-62
2023/08/07 07:40:25;;;;;;;8.57;3.90;;;;;;;;;;5134779;27;20496;-63
2023/08/07 07:42:53;;;;;;;9.73;4.33;;;;;;;;;;5135708;27;20503;-63
2023/08/07 07:45:23;;;;;;;10.27;4.53;;;;;;;;;;5135328;27;20463;-63
2023/08/07 07:47:50;;;;;;;9.33;3.93;;;;;;;;;;5135752;27;20750;-63
2023/08/07 07:50:17;;;;;;;12.63;4.37;;;;;;;;;;5135939;27;20549;-63
2023/08/07 07:52:45;;;;;;;7.40;2.70;;;;;;;;;;5135958;27;20483;-64
2023/08/07 07:55:13;;;;;;;7.33;3.43;;;;;;;;;;5135901;27;20529;-64
2023/08/07 07:57:40;;;;;;;6.20;3.03;;;;;;;;;;5135540;27;20441;-64
2023/08/07 08:00:11;;;;;;;4.57;3.10;;;;;;;;;;5135448;27;20468;-64
2023/08/07 08:02:40;;;;;;;4.27;2.50;;;;;;;;;;5134876;27;20447;-64
2023/08/07 08:05:10;;;;;;;4.20;2.70;;;;;;;;;;5134924;27;20440;-64
2023/08/07 08:07:38;;;;;;;4.87;2.57;;;;;;;;;;5135328;27;20445;-64
2023/08/07 08:10:06;;;;;;;3.70;3.30;;;;;;;;;;5134947;27;20473;-64
2023/08/07 08:12:33;;;;;;;6.60;2.57;;;;;;;;;;5135244;27;20463;-63
2023/08/07 08:15:01;;;;;;;3.97;2.70;;;;;;;;;;5135503;27;20466;-63
2023/08/07 08:17:29;;;;;;;5.07;3.03;;;;;;;;;;5135146;27;20921;-63
2023/08/07 08:19:56;;;;;;;8.67;4.30;;;;;;;;;;5135276;27;20445;-64
2023/08/07 08:22:24;;;;;;;5.03;3.33;;;;;;;;;;5135134;27;20466;-64
2023/08/07 08:24:51;;;;;;;13.53;4.43;;;;;;;;;;5135098;27;20437;-63
2023/08/07 08:27:18;;;;;;;6.40;3.53;;;;;;;;;;5135029;27;20438;-64
2023/08/07 08:29:46;;;;;;;10.87;3.50;;;;;;;;;;5135476;27;20473;-63
2023/08/07 08:32:13;;;;;;;7.87;3.57;;;;;;;;;;5135196;27;20464;-63
2023/08/07 08:34:42;;;;;;;5.40;3.50;;;;;;;;;;5134797;27;20478;-63
2023/08/07 08:37:11;;;;;;;9.40;4.20;;;;;;;;;;5134875;27;20813;-63
2023/08/07 08:39:38;;;;;;;6.47;3.67;;;;;;;;;;5134772;27;20440;-63
2023/08/07 08:42:06;;;;;;;8.00;3.23;;;;;;;;;;5134658;27;20440;-63
2023/08/07 08:44:33;;;;;;;11.17;4.10;;;;;;;;;;5135014;27;20434;-63
2023/08/07 08:47:01;;;;;;;13.80;4.87;;;;;;;;;;5134347;27;20468;-64
2023/08/07 08:49:32;;;;;;;6.60;3.20;;;;;;;;;;5134365;27;20823;-63
2023/08/07 08:52:01;;;;;;;7.53;4.13;;;;;;;;;;5134584;27;20838;-64
2023/08/07 08:54:28;;;;;;;8.97;4.13;;;;;;;;;;5134404;27;20457;-64
2023/08/07 08:56:56;;;;;;;12.20;5.67;;;;;;;;;;5134306;27;20444;-64
2023/08/07 08:59:23;;;;;;;5.27;3.33;;;;;;;;;;5134555;27;20465;-63
2023/08/07 09:01:52;;;;;;;10.27;6.40;;;;;;;;;;5134041;27;20985;-63
2023/08/07 09:04:19;;;;;;;7.10;4.93;;;;;;;;;;5134508;27;20458;-64
2023/08/07 09:06:47;;;;;;;14.43;5.00;;;;;;;;;;5134210;27;20834;-63
2023/08/07 09:09:16;;;;;;;8.70;4.10;;;;;;;;;;5133690;27;20495;-63
2023/08/07 09:11:44;;;;;;;12.17;4.70;;;;;;;;;;5134082;27;20489;-63
2023/08/07 09:14:13;;;;;;;6.93;3.47;;;;;;;;;;5134437;27;20478;-63
2023/08/07 09:16:40;;;;;;;13.43;5.00;;;;;;;;;;5134168;27;20471;-63
2023/08/07 09:19:08;;;;;;;8.37;3.93;;;;;;;;;;5134307;27;20490;-63
2023/08/07 09:21:35;;;;;;;5.40;3.90;;;;;;;;;;5134156;27;20441;-63
2023/08/07 09:24:02;;;;;;;12.63;4.10;;;;;;;;;;5134456;27;20533;-62
2023/08/07 09:26:33;;;;;;;8.37;4.10;;;;;;;;;;5134196;27;20454;-63
2023/08/07 09:29:01;;;;;;;8.17;3.90;;;;;;;;;;5133751;27;20906;-63
2023/08/07 09:31:30;;;;;;;13.17;3.93;;;;;;;;;;5133623;27;20465;-63
2023/08/07 09:34:02;;;;;;;4.20;2.93;;;;;;;;;;5133939;27;20439;-62
2023/08/07 09:36:31;;;;;;;7.23;3.90;;;;;;;;;;5134050;27;20429;-63
2023/08/07 09:39:01;;;;;;;4.87;3.83;;;;;;;;;;5134071;28;20441;-63
2023/08/07 09:41:30;;;;;;;7.30;3.07;;;;;;;;;;5133939;28;20523;-63
2023/08/07 09:43:59;;;;;;;7.40;3.20;;;;;;;;;;5133894;28;20446;-62
2023/08/07 09:46:27;;;;;;;13.63;3.90;;;;;;;;;;5134279;28;20527;-62
2023/08/07 09:48:59;;;;;;;8.17;3.83;;;;;;;;;;5133884;28;20437;-62
2023/08/07 09:51:27;;;;;;;5.70;3.03;;;;;;;;;;5133654;28;20459;-63
2023/08/07 09:53:54;;;;;;;2.70;2.27;;;;;;;;;;5133595;28;20461;-63
2023/08/07 09:56:21;;;;;;;4.90;2.67;;;;;;;;;;5133327;28;20488;-63
2023/08/07 09:58:49;;;;;;;3.00;2.10;;;;;;;;;;5133212;27;20445;-63
2023/08/07 10:01:18;;;;;;;5.80;3.47;;;;;;;;;;5133602;28;20901;-63
2023/08/07 10:03:46;;;;;;;7.33;3.23;;;;;;;;;;5135839;27;20536;-63
2023/08/07 10:06:13;;;;;;;5.43;2.20;;;;;;;;;;5137634;27;20440;-62
2023/08/07 10:08:42;;;;;;;4.10;3.23;;;;;;;;;;5137674;27;20447;-63
2023/08/07 10:11:11;;;;;;;13.80;3.10;;;;;;;;;;5137494;27;20469;-62
2023/08/07 10:13:38;;;;;;;4.87;3.13;;;;;;;;;;5137396;27;20440;-62
2023/08/07 10:16:06;;;;;;;7.40;3.03;;;;;;;;;;5137109;27;20440;-62
2023/08/07 10:18:34;;;;;;;11.03;3.70;;;;;;;;;;5137363;27;20433;-63
2023/08/07 10:21:02;;;;;;;4.70;2.77;;;;;;;;;;5137288;27;20445;-62
2023/08/07 10:23:34;;;;;;;8.13;3.10;;;;;;;;;;5136946;27;20430;-62
2023/08/07 10:26:03;;;;;;;6.80;3.40;;;;;;;;;;5137300;27;20597;-63
2023/08/07 10:28:30;;;;;;;10.70;2.87;;;;;;;;;;5137180;27;20435;-62
2023/08/07 10:30:58;;;;;;;6.07;2.63;;;;;;;;;;5137766;27;20483;-63
2023/08/07 10:33:25;;;;;;;4.40;2.60;;;;;;;;;;5137455;27;20513;-63
2023/08/07 10:35:54;;;;;;;7.90;2.53;;;;;;;;;;5137310;27;20532;-62
2023/08/07 10:38:21;;;;;;;6.97;2.77;;;;;;;;;;5137279;27;20465;-63
2023/08/07 10:41:00;;;;;;;10.33;3.00;;;;;;;;;;5137798;27;20558;-63
2023/08/07 10:43:28;;;;;;;7.67;3.37;;;;;;;;;;5137270;27;20421;-62
2023/08/07 10:45:55;;;;;;;4.53;3.13;;;;;;;;;;5136571;27;20441;-62
2023/08/07 10:48:23;;;;;;;4.60;3.27;;;;;;;;;;5136454;27;20896;-62
2023/08/07 10:50:52;;;;;;;10.23;4.17;;;;;;;;;;5136448;27;20489;-62
2023/08/07 10:53:30;;;;;;;7.00;3.20;;;;;;;;;;5136285;27;20442;-62
2023/08/07 10:55:58;;;;;;;14.70;3.30;;;;;;;;;;5137247;27;20417;-62
2023/08/07 10:58:26;;;;;;;5.30;3.40;;;;;;;;;;5136122;27;20469;-62
2023/08/07 11:00:54;;;;;;;5.63;4.00;;;;;;;;;;5136333;27;20511;-62
2023/08/07 11:03:22;;;;;;;9.00;2.97;;;;;;;;;;5136596;27;20525;-62
2023/08/07 11:05:49;;;;;;;3.90;3.23;;;;;;;;;;5136529;27;20544;-62
2023/08/07 11:08:16;;;;;;;4.90;3.30;;;;;;;;;;5136859;27;20437;-62
2023/08/07 11:10:45;;;;;;;5.07;2.60;;;;;;;;;;5136435;27;20505;-62
2023/08/07 11:13:12;;;;;;;4.13;2.57;;;;;;;;;;5136440;27;20627;-62
2023/08/07 11:15:39;;;;;;;6.40;2.70;;;;;;;;;;5134626;27;20446;-62
2023/08/07 11:18:07;;;;;;;3.30;2.87;;;;;;;;;;5135801;27;20955;-62
2023/08/07 11:20:38;;;;;;;5.30;3.17;;;;;;;;;;5136199;27;20480;-62
2023/08/07 11:23:06;;;;;;;5.47;3.07;;;;;;;;;;5136597;27;20429;-62
2023/08/07 11:25:33;;;;;;;4.03;3.30;;;;;;;;;;5135765;27;20907;-62
2023/08/07 11:28:01;;;;;;;7.23;2.57;;;;;;;;;;5136148;27;20525;-62
2023/08/07 11:30:29;;;;;;;8.60;3.73;;;;;;;;;;5135605;27;20612;-66
2023/08/07 11:32:56;;;;;;;6.80;2.97;;;;;;;;;;5136005;27;20556;-62
2023/08/07 11:35:24;;;;;;;5.63;2.37;;;;;;;;;;5135692;27;20536;-62
2023/08/07 11:37:53;;;;;;;10.73;2.83;;;;;;;;;;5135602;27;20519;-62
2023/08/07 11:40:21;;;;;;;6.90;3.10;;;;;;;;;;5136114;27;20773;-63
2023/08/07 11:42:48;;;;;;;10.60;2.90;;;;;;;;;;5135867;27;20532;-63
2023/08/07 11:45:17;;;;;;;7.40;2.80;;;;;;;;;;5135375;27;20924;-64
2023/08/07 11:47:44;;;;;;;5.30;2.30;;;;;;;;;;5135454;27;20466;-63
2023/08/07 11:50:11;;;;;;;3.07;1.63;;;;;;;;;;5134942;27;20973;-63
2023/08/07 11:52:40;;;;;;;4.80;2.80;;;;;;;;;;5135088;27;20459;-63
2023/08/07 11:55:09;;;;;;;4.33;2.50;;;;;;;;;;5135208;27;20439;-63
2023/08/07 11:57:36;;;;;;;2.27;1.90;;;;;;;;;;5135376;27;20533;-63
2023/08/07 12:00:06;;;;;;;4.03;2.70;;;;;;;;;;5135195;27;20835;-63
2023/08/07 12:02:36;;;;;;;4.00;2.23;;;;;;;;;;5135460;27;20438;-63
2023/08/07 12:05:04;;;;;;;3.30;2.07;;;;;;;;;;5134243;27;20438;-63
2023/08/07 12:07:31;;;;;;;3.03;2.23;;;;;;;;;;5134540;27;20488;-62
2023/08/07 12:09:59;;;;;;;4.07;1.90;;;;;;;;;;5134699;27;20769;-63
2023/08/07 12:12:26;;;;;;;4.50;2.37;;;;;;;;;;5134880;27;20524;-63
2023/08/07 12:14:54;;;;;;;5.83;2.50;;;;;;;;;;5134373;27;20433;-63
2023/08/07 12:17:23;;;;;;;5.77;2.50;;;;;;;;;;5134882;27;20433;-63
2023/08/07 12:19:55;;;;;;;6.10;2.00;;;;;;;;;;5134769;27;20449;-63
2023/08/07 12:22:24;;;;;;;3.43;2.23;;;;;;;;;;5135301;27;20443;-63
2023/08/07 12:24:51;;;;;;;7.07;2.97;;;;;;;;;;5134365;27;20438;-63
2023/08/07 12:27:19;;;;;;;7.10;2.90;;;;;;;;;;5134097;27;20854;-63
2023/08/07 12:29:46;;;;;;;7.70;2.60;;;;;;;;;;5134409;27;20500;-63
2023/08/07 12:32:13;;;;;;;11.30;3.47;;;;;;;;;;5134201;27;20516;-63
2023/08/07 12:34:41;;;;;;;4.40;2.10;;;;;;;;;;5133989;27;20448;-62
2023/08/07 12:37:08;;;;;;;9.73;3.07;;;;;;;;;;5134144;27;20448;-63
2023/08/07 12:39:37;;;;;;;2.23;2.03;;;;;;;;;;5134206;27;20440;-64
2023/08/07 12:42:06;;;;;;;3.23;2.67;;;;;;;;;;5134526;27;20445;-63
2023/08/07 12:44:33;;;;;;;5.00;2.27;;;;;;;;;;5134349;27;20441;-63
2023/08/07 12:47:00;;;;;;;3.27;2.23;;;;;;;;;;5134034;27;20472;-62
2023/08/07 12:49:27;;;;;;;5.20;2.77;;;;;;;;;;5134666;27;20468;-63
2023/08/07 12:51:56;;;;;;;6.23;2.97;;;;;;;;;;5134533;27;20530;-63
2023/08/07 12:54:23;;;;;;;4.43;2.43;;;;;;;;;;5133681;27;20470;-63
2023/08/07 12:56:54;;;;;;;3.53;2.43;;;;;;;;;;5134010;27;20444;-63
2023/08/07 12:59:21;;;;;;;3.13;2.47;;;;;;;;;;5133667;27;20564;-63
2023/08/07 13:01:49;;;;;;;9.00;2.70;;;;;;;;;;5133728;27;20445;-63
2023/08/07 13:04:16;;;;;;;2.80;1.97;;;;;;;;;;5133375;27;20609;-62
2023/08/07 13:06:44;;;;;;;5.63;3.13;;;;;;;;;;5134068;27;20865;-63
2023/08/07 13:09:11;;;;;;;4.03;2.03;;;;;;;;;;5133756;27;20799;-63
2023/08/07 13:11:38;;;;;;;4.27;2.57;;;;;;;;;;5134166;27;20508;-64
2023/08/07 13:14:07;;;;;;;2.87;2.10;;;;;;;;;;5133528;27;20953;-63
2023/08/07 13:16:34;;;;;;;6.53;2.10;;;;;;;;;;5134013;27;20465;-63
2023/08/07 13:19:01;;;;;;;6.33;2.77;;;;;;;;;;5134021;27;20801;-63
2023/08/07 13:21:29;;;;;;;3.10;2.33;;;;;;;;;;5134032;27;20533;-63
2023/08/07 13:23:56;;;;;;;5.93;2.27;;;;;;;;;;5134122;27;20473;-63
2023/08/07 13:26:23;;;;;;;8.43;3.37;;;;;;;;;;5133831;27;20498;-63
2023/08/07 13:28:50;;;;;;;4.33;3.07;;;;;;;;;;5133930;27;20513;-63
2023/08/07 13:31:19;;;;;;;6.17;2.53;;;;;;;;;;5133579;27;20565;-63
2023/08/07 13:33:46;;;;;;;2.17;1.97;;;;;;;;;;5133291;27;20536;-63
2023/08/07 13:36:13;;;;;;;7.03;2.60;;;;;;;;;;5133355;27;20433;-63
2023/08/07 13:38:40;;;;;;;5.60;2.67;;;;;;;;;;5133015;27;20483;-63
2023/08/07 13:41:08;;;;;;;2.20;2.00;;;;;;;;;;5133569;28;20442;-63
2023/08/07 13:43:35;;;;;;;3.53;1.90;;;;;;;;;;5133791;28;20430;-63
2023/08/07 13:46:02;;;;;;;7.67;2.70;;;;;;;;;;5133353;28;20533;-63
2023/08/07 13:48:33;;;;;;;3.90;2.47;;;;;;;;;;5133306;28;20545;-63
2023/08/07 13:51:04;;;;;;;4.73;2.47;;;;;;;;;;5133109;28;20485;-64
2023/08/07 13:53:31;;;;;;;4.20;2.40;;;;;;;;;;5133565;28;20419;-63
2023/08/07 13:55:58;;;;;;;5.33;2.40;;;;;;;;;;5133744;28;20798;-63
2023/08/07 13:58:25;;;;;;;6.80;3.03;;;;;;;;;;5133551;28;20790;-64
2023/08/07 14:00:53;;;;;;;7.10;3.27;;;;;;;;;;5133503;27;20465;-63
2023/08/07 14:03:20;;;;;;;5.13;2.53;;;;;;;;;;5133320;28;20434;-63
2023/08/07 14:05:50;;;;;;;8.27;2.40;;;;;;;;;;5133060;28;20447;-63
2023/08/07 14:08:17;;;;;;;4.47;2.67;;;;;;;;;;5133171;28;20441;-63
2023/08/07 14:10:44;;;;;;;4.13;3.20;;;;;;;;;;5133200;28;20552;-63
2023/08/07 14:13:11;;;;;;;6.60;2.70;;;;;;;;;;5132972;28;20939;-63
2023/08/07 14:15:39;;;;;;;3.97;2.30;;;;;;;;;;5132968;28;20426;-63
2023/08/07 14:18:06;;;;;;;3.90;2.80;;;;;;;;;;5132949;28;20525;-63
2023/08/07 14:20:33;;;;;;;9.53;2.50;;;;;;;;;;5133084;28;21003;-63
2023/08/07 14:23:01;;;;;;;5.10;2.53;;;;;;;;;;5133237;28;20522;-63
2023/08/07 14:25:29;;;;;;;4.23;2.40;;;;;;;;;;5133139;28;20957;-63
2023/08/07 14:27:56;;;;;;;4.07;2.03;;;;;;;;;;5133030;28;20617;-63
2023/08/07 14:30:23;;;;;;;2.90;2.10;;;;;;;;;;5133265;28;20517;-63
2023/08/07 14:32:50;;;;;;;5.50;2.90;;;;;;;;;;5132698;28;20485;-64
2023/08/07 14:35:18;;;;;;;7.80;2.20;;;;;;;;;;5133345;28;20524;-63
2023/08/07 14:37:47;;;;;;;7.10;2.80;;;;;;;;;;5132854;28;20448;-63
2023/08/07 14:40:16;;;;;;;3.93;2.03;;;;;;;;;;5133015;28;20457;-64
2023/08/07 14:42:43;;;;;;;4.00;1.60;;;;;;;;;;5132951;28;20506;-64
2023/08/07 14:45:11;;;;;;;2.63;2.07;;;;;;;;;;5133120;28;21015;-64